Time;durP1;ratioP1;P1;durP2;ratioP2;P2;SDS_P1;SDS_P2;PMS_P1;PMS_P2;Temp;Humidity;BMP_temperature;BMP_pressure;BME280_temperature;BME280_humidity;BME280_pressure;Samples;Min_cycle;Max_cycle;Signal;HPM_P1;HPM_P2
2022/01/16 00:04:09;;;;;;;87.18;25.55;;;;;;;;;;5037115;28;20045;-77
2022/01/16 00:06:36;;;;;;;83.45;25.13;;;;;;;;;;5031424;28;20037;-77
2022/01/16 00:09:03;;;;;;;87.22;26.65;;;;;;;;;;5048350;28;20049;-77
2022/01/16 00:11:30;;;;;;;89.70;26.85;;;;;;;;;;5068876;28;20044;-77
2022/01/16 00:13:56;;;;;;;84.97;26.35;;;;;;;;;;5070366;28;20040;-77
2022/01/16 00:16:22;;;;;;;88.13;26.75;;;;;;;;;;5052734;28;20036;-77
2022/01/16 00:18:49;;;;;;;89.28;26.90;;;;;;;;;;5069706;28;20036;-77
2022/01/16 00:21:26;;;;;;;92.50;26.75;;;;;;;;;;5070111;28;20491;-77
2022/01/16 00:23:53;;;;;;;97.35;27.88;;;;;;;;;;5069779;28;20581;-77
2022/01/16 00:26:19;;;;;;;95.68;28.25;;;;;;;;;;5069670;28;20040;-77
2022/01/16 00:28:45;;;;;;;102.07;28.60;;;;;;;;;;5069162;28;20048;-77
2022/01/16 00:31:11;;;;;;;91.28;27.20;;;;;;;;;;5069275;28;20048;-77
2022/01/16 00:33:42;;;;;;;92.43;26.88;;;;;;;;;;5069290;28;20053;-78
2022/01/16 00:36:10;;;;;;;90.03;25.85;;;;;;;;;;5069660;28;20036;-77
2022/01/16 00:38:39;;;;;;;89.15;26.63;;;;;;;;;;5069103;28;20048;-77
2022/01/16 00:41:05;;;;;;;86.90;25.42;;;;;;;;;;5069354;28;20044;-77
2022/01/16 00:43:31;;;;;;;89.75;26.20;;;;;;;;;;5052532;28;20043;-77
2022/01/16 00:45:57;;;;;;;93.03;25.80;;;;;;;;;;5069080;28;20044;-77
2022/01/16 00:48:24;;;;;;;96.43;28.27;;;;;;;;;;5069062;28;20500;-77
2022/01/16 00:50:50;;;;;;;106.75;28.10;;;;;;;;;;5069013;28;20127;-77
2022/01/16 00:53:16;;;;;;;94.38;27.50;;;;;;;;;;5069127;28;20044;-77
2022/01/16 00:55:42;;;;;;;100.40;27.98;;;;;;;;;;5068453;28;20053;-77
2022/01/16 00:58:08;;;;;;;94.65;26.63;;;;;;;;;;5052773;28;20535;-77
2022/01/16 01:00:34;;;;;;;99.78;25.75;;;;;;;;;;5052051;28;20714;-78
2022/01/16 01:03:01;;;;;;;95.05;26.83;;;;;;;;;;5069058;28;20082;-78
2022/01/16 01:05:28;;;;;;;109.20;27.42;;;;;;;;;;5068534;28;20048;-77
2022/01/16 01:07:54;;;;;;;109.00;28.05;;;;;;;;;;5052282;28;20056;-77
2022/01/16 01:10:27;;;;;;;120.57;28.23;;;;;;;;;;5068610;28;20044;-77
2022/01/16 01:12:55;;;;;;;113.50;27.33;;;;;;;;;;5068665;28;20048;-77
2022/01/16 01:15:26;;;;;;;135.43;28.52;;;;;;;;;;5068624;28;20054;-77
2022/01/16 01:17:53;;;;;;;122.40;27.95;;;;;;;;;;5068634;28;20488;-77
2022/01/16 01:20:20;;;;;;;150.05;29.98;;;;;;;;;;5069885;28;20052;-77
2022/01/16 01:22:48;;;;;;;137.15;28.65;;;;;;;;;;5051842;28;20056;-77
2022/01/16 01:25:14;;;;;;;130.25;29.17;;;;;;;;;;5068792;28;20095;-77
2022/01/16 01:27:44;;;;;;;153.02;30.90;;;;;;;;;;5068388;28;20056;-77
2022/01/16 01:30:11;;;;;;;152.00;30.48;;;;;;;;;;5068460;28;20062;-77
2022/01/16 01:32:38;;;;;;;131.10;29.98;;;;;;;;;;5068012;28;20500;-77
2022/01/16 01:35:08;;;;;;;151.02;30.77;;;;;;;;;;5069733;28;20040;-77
2022/01/16 01:37:34;;;;;;;142.75;30.02;;;;;;;;;;5067899;28;20115;-77
2022/01/16 01:40:01;;;;;;;143.02;29.95;;;;;;;;;;5068231;28;20484;-77
2022/01/16 01:42:33;;;;;;;156.52;30.45;;;;;;;;;;5067500;28;20048;-77
2022/01/16 01:53:15;;;;;;;133.07;27.25;;;;;;;;;;5067804;28;20048;-77
2022/01/16 01:55:43;;;;;;;148.70;29.88;;;;;;;;;;5050822;28;20052;-77
2022/01/16 01:58:09;;;;;;;158.57;30.35;;;;;;;;;;5067875;28;20072;-77
2022/01/16 02:00:36;;;;;;;143.88;30.65;;;;;;;;;;5067550;28;20123;-77
2022/01/16 02:05:31;;;;;;;158.65;31.10;;;;;;;;;;5067620;28;20047;-77
2022/01/16 02:07:57;;;;;;;150.88;29.90;;;;;;;;;;5068049;28;20109;-77
2022/01/16 02:10:24;;;;;;;162.50;30.48;;;;;;;;;;5067879;28;20051;-77
2022/01/16 02:12:57;;;;;;;147.88;27.05;;;;;;;;;;5067525;28;20044;-77
2022/01/16 02:31:44;;;;;;;185.25;31.70;;;;;;;;;;5067245;28;20044;-77
2022/01/16 02:34:32;;;;;;;161.30;31.92;;;;;;;;;;5069174;28;20119;-77
2022/01/16 02:37:02;;;;;;;140.68;31.40;;;;;;;;;;5067877;28;20041;-77
2022/01/16 02:39:29;;;;;;;142.30;30.48;;;;;;;;;;5050766;28;20577;-77
2022/01/16 02:41:58;;;;;;;182.57;34.08;;;;;;;;;;5067531;28;20048;-77
2022/01/16 02:44:41;;;;;;;149.68;29.88;;;;;;;;;;5066948;28;20132;-77
2022/01/16 02:47:10;;;;;;;154.02;31.10;;;;;;;;;;5067570;28;20044;-77
2022/01/16 02:49:36;;;;;;;170.85;31.67;;;;;;;;;;5067428;28;20052;-77
2022/01/16 02:52:03;;;;;;;159.02;30.85;;;;;;;;;;5067624;28;20119;-77
2022/01/16 02:54:34;;;;;;;184.40;34.88;;;;;;;;;;5067139;28;20048;-77
2022/01/16 02:57:01;;;;;;;169.82;33.00;;;;;;;;;;5067555;28;20128;-77
2022/01/16 02:59:27;;;;;;;185.73;32.88;;;;;;;;;;5050495;28;20400;-77
2022/01/16 03:01:53;;;;;;;191.07;34.97;;;;;;;;;;5061991;28;20064;-77
2022/01/16 03:04:20;;;;;;;183.98;34.92;;;;;;;;;;5066686;28;20048;-77
2022/01/16 03:06:46;;;;;;;171.02;33.30;;;;;;;;;;5065647;28;20071;-77
2022/01/16 03:09:13;;;;;;;200.30;34.80;;;;;;;;;;5068395;28;20141;-77
2022/01/16 03:11:42;;;;;;;207.73;34.47;;;;;;;;;;5067347;28;20044;-77
2022/01/16 03:14:10;;;;;;;199.98;34.33;;;;;;;;;;5067318;28;20041;-77
2022/01/16 03:16:36;;;;;;;210.18;34.70;;;;;;;;;;5066945;28;20037;-77
2022/01/16 03:21:54;;;;;;;193.48;34.30;;;;;;;;;;5066998;28;20131;-77
2022/01/16 03:24:24;;;;;;;204.18;37.67;;;;;;;;;;5052176;28;20099;-77
2022/01/16 03:26:51;;;;;;;210.57;34.63;;;;;;;;;;5048182;28;20106;-77
2022/01/16 03:29:17;;;;;;;198.80;34.22;;;;;;;;;;5067143;28;20044;-77
2022/01/16 03:31:43;;;;;;;213.10;35.28;;;;;;;;;;5061201;28;20037;-77
2022/01/16 03:34:09;;;;;;;217.25;32.63;;;;;;;;;;5070654;28;20040;-77
2022/01/16 03:36:35;;;;;;;214.23;33.20;;;;;;;;;;5070249;28;20032;-77
2022/01/16 03:39:01;;;;;;;225.65;36.97;;;;;;;;;;5053973;28;20052;-77
2022/01/16 03:41:28;;;;;;;216.68;37.88;;;;;;;;;;5070086;28;20173;-77
2022/01/16 03:44:03;;;;;;;219.10;35.30;;;;;;;;;;5070241;28;20131;-77
2022/01/16 03:46:34;;;;;;;231.93;37.40;;;;;;;;;;5070138;28;20083;-77
2022/01/16 03:49:04;;;;;;;207.55;36.40;;;;;;;;;;5070326;28;20201;-77
2022/01/16 03:51:31;;;;;;;230.45;36.72;;;;;;;;;;5069805;28;20051;-77
2022/01/16 03:53:57;;;;;;;240.55;40.20;;;;;;;;;;5070662;28;20040;-77
2022/01/16 03:56:23;;;;;;;227.77;37.70;;;;;;;;;;5053395;28;20057;-77
2022/01/16 03:58:50;;;;;;;218.20;38.33;;;;;;;;;;5070276;28;20044;-77
2022/01/16 04:01:16;;;;;;;228.63;37.78;;;;;;;;;;5070106;28;20036;-77
2022/01/16 04:03:42;;;;;;;251.13;38.70;;;;;;;;;;5053405;28;20472;-77
2022/01/16 04:06:08;;;;;;;250.38;36.78;;;;;;;;;;5070477;28;20126;-77
2022/01/16 04:08:34;;;;;;;245.52;37.75;;;;;;;;;;5069897;28;20524;-77
2022/01/16 04:11:00;;;;;;;235.80;38.57;;;;;;;;;;5069706;28;20044;-77
2022/01/16 04:13:27;;;;;;;240.40;38.33;;;;;;;;;;5052552;28;20119;-77
2022/01/16 04:15:53;;;;;;;255.52;39.42;;;;;;;;;;5070209;28;20298;-77
2022/01/16 04:18:19;;;;;;;238.27;38.75;;;;;;;;;;5070273;28;20476;-77
2022/01/16 04:20:45;;;;;;;238.45;37.78;;;;;;;;;;5070643;28;20555;-77
2022/01/16 04:23:11;;;;;;;289.15;40.63;;;;;;;;;;5053528;28;20446;-77
2022/01/16 04:25:37;;;;;;;265.27;39.15;;;;;;;;;;5069374;28;20052;-77
2022/01/16 04:28:04;;;;;;;244.63;39.08;;;;;;;;;;5069547;28;20044;-77
2022/01/16 04:30:30;;;;;;;244.90;39.50;;;;;;;;;;5068901;28;20047;-77
2022/01/16 04:32:57;;;;;;;247.60;39.70;;;;;;;;;;5053000;28;20119;-77
2022/01/16 04:35:23;;;;;;;270.13;40.58;;;;;;;;;;5070958;28;20036;-77
2022/01/16 04:37:49;;;;;;;251.55;39.65;;;;;;;;;;5069056;28;20051;-77
2022/01/16 04:40:16;;;;;;;246.57;38.03;;;;;;;;;;5069072;28;20040;-77
2022/01/16 04:45:38;;;;;;;250.93;37.42;;;;;;;;;;5016189;28;20045;-77
2022/01/16 04:48:04;;;;;;;260.27;41.08;;;;;;;;;;5103691;28;20492;-77
2022/01/16 04:50:30;;;;;;;283.38;42.67;;;;;;;;;;5068398;28;20119;-77
2022/01/16 04:52:56;;;;;;;275.42;42.08;;;;;;;;;;5068984;28;20040;-77
2022/01/16 04:55:24;;;;;;;263.70;39.78;;;;;;;;;;5068831;28;20056;-77
2022/01/16 04:57:50;;;;;;;252.23;40.80;;;;;;;;;;5069013;28;20048;-77
2022/01/16 05:00:16;;;;;;;254.55;40.75;;;;;;;;;;5068837;28;20036;-77
2022/01/16 05:02:42;;;;;;;235.25;40.60;;;;;;;;;;5062514;28;20085;-77
2022/01/16 05:05:09;;;;;;;232.50;39.70;;;;;;;;;;5051580;28;20040;-77
2022/01/16 05:07:35;;;;;;;250.35;39.38;;;;;;;;;;5067463;28;20059;-77
2022/01/16 05:10:01;;;;;;;259.17;41.50;;;;;;;;;;5069987;28;20044;-77
2022/01/16 05:12:33;;;;;;;249.50;42.63;;;;;;;;;;5051396;28;20044;-77
2022/01/16 05:17:44;;;;;;;249.30;40.42;;;;;;;;;;5068115;28;20079;-77
2022/01/16 05:20:10;;;;;;;240.13;40.22;;;;;;;;;;5068887;28;20519;-77
2022/01/16 05:22:36;;;;;;;223.18;37.28;;;;;;;;;;5068289;28;20186;-77
2022/01/16 05:25:03;;;;;;;243.98;40.70;;;;;;;;;;5068805;28;20751;-77
2022/01/16 05:27:30;;;;;;;239.00;40.42;;;;;;;;;;5068224;28;20082;-77
2022/01/16 05:29:56;;;;;;;242.43;39.20;;;;;;;;;;5069618;28;20051;-77
2022/01/16 05:32:22;;;;;;;252.57;41.58;;;;;;;;;;5068057;28;20094;-77
2022/01/16 05:34:48;;;;;;;239.77;38.42;;;;;;;;;;5068996;28;20147;-77
2022/01/16 05:37:14;;;;;;;251.52;40.80;;;;;;;;;;5068659;28;20051;-77
2022/01/16 05:39:40;;;;;;;246.57;40.15;;;;;;;;;;5068077;28;20067;-77
2022/01/16 05:42:08;;;;;;;240.07;40.55;;;;;;;;;;5068271;28;20536;-77
2022/01/16 05:44:34;;;;;;;233.18;40.25;;;;;;;;;;5035242;28;20174;-77
2022/01/16 05:47:02;;;;;;;237.38;40.60;;;;;;;;;;5067678;28;20037;-77
2022/01/16 05:49:29;;;;;;;245.30;40.05;;;;;;;;;;5067049;28;20396;-77
2022/01/16 05:51:55;;;;;;;235.65;40.65;;;;;;;;;;5067741;28;20051;-77
2022/01/16 05:54:21;;;;;;;253.23;42.05;;;;;;;;;;5068550;28;20412;-77
2022/01/16 05:56:47;;;;;;;211.38;37.90;;;;;;;;;;5067696;28;20056;-77
2022/01/16 05:59:13;;;;;;;247.52;41.00;;;;;;;;;;5068206;28;20068;-77
2022/01/16 06:01:39;;;;;;;240.77;39.72;;;;;;;;;;5050662;28;20051;-77
2022/01/16 06:04:05;;;;;;;229.05;41.40;;;;;;;;;;5068155;28;20507;-77
2022/01/16 06:06:32;;;;;;;218.40;39.33;;;;;;;;;;5067634;28;20071;-77
2022/01/16 06:08:58;;;;;;;232.43;41.10;;;;;;;;;;5067439;28;20082;-77
2022/01/16 06:11:24;;;;;;;220.65;41.00;;;;;;;;;;5067484;28;20140;-77
2022/01/16 06:13:52;;;;;;;217.65;41.63;;;;;;;;;;5051118;28;20040;-77
2022/01/16 06:16:18;;;;;;;241.02;42.22;;;;;;;;;;5067492;28;20040;-77
2022/01/16 06:18:44;;;;;;;240.15;42.08;;;;;;;;;;5050858;28;20063;-77
2022/01/16 06:21:10;;;;;;;224.77;41.53;;;;;;;;;;5067835;28;20293;-77
2022/01/16 06:23:36;;;;;;;232.57;41.45;;;;;;;;;;5050801;28;20036;-77
2022/01/16 06:26:02;;;;;;;227.52;41.92;;;;;;;;;;5051327;28;20392;-77
2022/01/16 06:28:30;;;;;;;229.10;39.65;;;;;;;;;;5067480;28;20072;-77
2022/01/16 06:30:57;;;;;;;234.48;41.13;;;;;;;;;;5067683;28;20111;-77
2022/01/16 06:33:24;;;;;;;228.15;42.10;;;;;;;;;;5067191;28;20043;-77
2022/01/16 06:35:50;;;;;;;235.13;44.22;;;;;;;;;;5050621;28;20059;-77
2022/01/16 06:38:16;;;;;;;231.13;41.65;;;;;;;;;;5067820;28;20068;-77
2022/01/16 06:40:42;;;;;;;212.43;41.22;;;;;;;;;;5067421;28;20047;-77
2022/01/16 06:43:08;;;;;;;217.85;41.88;;;;;;;;;;5067571;28;20047;-77
2022/01/16 06:45:34;;;;;;;214.85;41.67;;;;;;;;;;5067364;28;20507;-77
2022/01/16 06:48:00;;;;;;;239.15;42.70;;;;;;;;;;5068606;28;20037;-77
2022/01/16 06:50:27;;;;;;;204.90;41.22;;;;;;;;;;5067240;28;20125;-77
2022/01/16 06:52:53;;;;;;;216.85;42.05;;;;;;;;;;5050701;28;20047;-77
2022/01/16 06:55:19;;;;;;;226.40;41.88;;;;;;;;;;5067678;28;20508;-77
2022/01/16 06:57:45;;;;;;;195.73;40.50;;;;;;;;;;5067080;28;20036;-77
2022/01/16 07:00:11;;;;;;;224.13;43.47;;;;;;;;;;5067554;28;20047;-77
2022/01/16 07:02:37;;;;;;;209.98;41.00;;;;;;;;;;5070759;28;20052;-77
2022/01/16 07:05:04;;;;;;;204.50;41.88;;;;;;;;;;5071711;28;20492;-77
2022/01/16 07:07:31;;;;;;;197.10;42.78;;;;;;;;;;5070737;28;20124;-77
2022/01/16 07:09:57;;;;;;;195.52;41.83;;;;;;;;;;5070804;28;20044;-77
2022/01/16 07:12:23;;;;;;;197.07;41.30;;;;;;;;;;5072010;28;20079;-77
2022/01/16 07:14:49;;;;;;;168.98;38.63;;;;;;;;;;5053996;28;20552;-77
2022/01/16 07:17:15;;;;;;;195.50;41.72;;;;;;;;;;5054723;28;20071;-77
2022/01/16 07:19:41;;;;;;;184.68;41.00;;;;;;;;;;5104680;28;20480;-77
2022/01/16 07:22:07;;;;;;;189.15;41.40;;;;;;;;;;5070777;28;20059;-77
2022/01/16 07:24:33;;;;;;;177.13;40.22;;;;;;;;;;5071861;28;20040;-77
2022/01/16 07:27:00;;;;;;;177.23;39.58;;;;;;;;;;5071086;28;20396;-78
2022/01/16 07:29:29;;;;;;;173.55;38.40;;;;;;;;;;5070482;28;20052;-77
2022/01/16 07:31:56;;;;;;;171.18;40.08;;;;;;;;;;5053699;28;20536;-77
2022/01/16 07:34:22;;;;;;;169.23;38.47;;;;;;;;;;5070807;28;20044;-77
2022/01/16 07:36:48;;;;;;;170.05;39.47;;;;;;;;;;5070310;28;20393;-77
2022/01/16 07:39:14;;;;;;;182.55;41.35;;;;;;;;;;5070009;28;20041;-77
2022/01/16 07:41:40;;;;;;;173.23;39.55;;;;;;;;;;5070168;28;20071;-77
2022/01/16 07:44:06;;;;;;;172.70;40.17;;;;;;;;;;5069977;28;20127;-77
2022/01/16 07:46:33;;;;;;;164.40;40.08;;;;;;;;;;5053828;28;20090;-77
2022/01/16 07:48:59;;;;;;;143.00;38.72;;;;;;;;;;5071567;28;20036;-77
2022/01/16 07:51:25;;;;;;;148.18;38.10;;;;;;;;;;5070556;28;20503;-78
2022/01/16 07:53:52;;;;;;;146.48;37.88;;;;;;;;;;5069968;28;20089;-77
2022/01/16 07:56:18;;;;;;;142.02;38.95;;;;;;;;;;5070260;28;20117;-77
2022/01/16 07:58:44;;;;;;;143.27;37.88;;;;;;;;;;5036402;28;20045;-77
2022/01/16 08:01:10;;;;;;;149.95;37.75;;;;;;;;;;5070463;28;20446;-77
2022/01/16 08:03:36;;;;;;;137.80;39.47;;;;;;;;;;5069560;28;20082;-77
2022/01/16 08:06:03;;;;;;;135.60;38.95;;;;;;;;;;5070254;28;20044;-77
2022/01/16 08:08:29;;;;;;;117.97;37.28;;;;;;;;;;5069618;28;20128;-77
2022/01/16 08:10:55;;;;;;;119.70;37.67;;;;;;;;;;5070245;28;20041;-77
2022/01/16 08:13:21;;;;;;;124.07;37.30;;;;;;;;;;5052075;28;20045;-77
2022/01/16 08:15:47;;;;;;;116.82;36.85;;;;;;;;;;5069715;28;20127;-77
2022/01/16 08:18:13;;;;;;;110.32;36.38;;;;;;;;;;5070179;28;20083;-77
2022/01/16 08:20:39;;;;;;;106.95;37.22;;;;;;;;;;5069509;28;20570;-77
2022/01/16 08:23:05;;;;;;;102.80;35.15;;;;;;;;;;5069819;28;20488;-77
2022/01/16 08:25:31;;;;;;;104.53;35.72;;;;;;;;;;5069604;28;20051;-77
2022/01/16 08:27:57;;;;;;;101.88;34.95;;;;;;;;;;5035885;28;20091;-77
2022/01/16 08:30:23;;;;;;;104.28;35.80;;;;;;;;;;5070220;28;20044;-77
2022/01/16 08:32:50;;;;;;;90.93;33.42;;;;;;;;;;5052652;28;20040;-77
2022/01/16 08:35:16;;;;;;;89.00;33.53;;;;;;;;;;5052843;28;20182;-77
2022/01/16 08:37:42;;;;;;;91.63;32.38;;;;;;;;;;5052337;28;20055;-77
2022/01/16 08:40:09;;;;;;;87.68;32.47;;;;;;;;;;5069607;28;20132;-77
2022/01/16 08:42:36;;;;;;;80.60;31.83;;;;;;;;;;5068706;28;20047;-77
2022/01/16 08:45:03;;;;;;;81.78;31.80;;;;;;;;;;5052644;28;20128;-77
2022/01/16 08:47:30;;;;;;;82.35;31.35;;;;;;;;;;5070122;28;20055;-77
2022/01/16 08:49:58;;;;;;;78.18;31.20;;;;;;;;;;5069416;28;20048;-77
2022/01/16 08:52:25;;;;;;;74.90;30.45;;;;;;;;;;5069095;28;20055;-77
2022/01/16 08:54:51;;;;;;;76.75;29.15;;;;;;;;;;5068505;28;20061;-77
2022/01/16 08:57:17;;;;;;;78.93;29.55;;;;;;;;;;5052423;28;20075;-77
2022/01/16 08:59:43;;;;;;;71.57;28.15;;;;;;;;;;5069812;28;20047;-77
2022/01/16 09:02:09;;;;;;;71.63;28.15;;;;;;;;;;5069006;28;20082;-77
2022/01/16 09:04:35;;;;;;;66.70;28.15;;;;;;;;;;5068654;28;20487;-77
2022/01/16 09:07:01;;;;;;;78.07;30.25;;;;;;;;;;5068847;28;20052;-77
2022/01/16 09:09:27;;;;;;;63.42;27.63;;;;;;;;;;5068617;28;20127;-77
2022/01/16 09:11:53;;;;;;;65.95;27.63;;;;;;;;;;5068393;28;20055;-77
2022/01/16 09:14:20;;;;;;;67.82;28.23;;;;;;;;;;5068461;28;20048;-77
2022/01/16 09:16:46;;;;;;;70.95;28.52;;;;;;;;;;5052075;28;20048;-77
2022/01/16 09:19:12;;;;;;;66.55;26.92;;;;;;;;;;5068860;28;20476;-77
2022/01/16 09:21:38;;;;;;;62.95;27.17;;;;;;;;;;5068030;28;20044;-77
2022/01/16 09:24:04;;;;;;;61.63;25.67;;;;;;;;;;5068254;28;20080;-77
2022/01/16 09:26:30;;;;;;;59.95;25.10;;;;;;;;;;5067912;28;20055;-77
2022/01/16 09:28:56;;;;;;;60.70;24.98;;;;;;;;;;5068828;28;20052;-77
2022/01/16 09:31:22;;;;;;;58.08;25.58;;;;;;;;;;5068414;28;20044;-77
2022/01/16 09:33:48;;;;;;;67.53;25.55;;;;;;;;;;5068047;28;20507;-77
2022/01/16 09:36:14;;;;;;;59.53;24.13;;;;;;;;;;5068636;28;20040;-76
2022/01/16 09:38:41;;;;;;;55.15;23.35;;;;;;;;;;5067482;28;20555;-76
2022/01/16 09:41:08;;;;;;;56.85;24.23;;;;;;;;;;5067798;28;20133;-77
2022/01/16 09:43:34;;;;;;;52.00;23.85;;;;;;;;;;5069014;28;20531;-77
2022/01/16 09:46:01;;;;;;;56.22;23.58;;;;;;;;;;5068242;28;20040;-77
2022/01/16 09:48:27;;;;;;;59.63;22.80;;;;;;;;;;5068567;28;20135;-77
2022/01/16 09:50:53;;;;;;;50.38;22.83;;;;;;;;;;5051356;28;20044;-77
2022/01/16 09:53:24;;;;;;;49.60;21.73;;;;;;;;;;5051172;28;20098;-77
2022/01/16 09:55:50;;;;;;;53.33;21.00;;;;;;;;;;5050688;28;20083;-77
2022/01/16 09:58:17;;;;;;;49.22;20.65;;;;;;;;;;5051430;28;20044;-77
2022/01/16 10:00:43;;;;;;;45.72;19.95;;;;;;;;;;5067660;28;20037;-77
2022/01/16 10:03:09;;;;;;;41.38;18.88;;;;;;;;;;5068169;28;20044;-77
2022/01/16 10:05:36;;;;;;;40.33;18.55;;;;;;;;;;5067986;28;20117;-77
2022/01/16 10:08:07;;;;;;;36.20;17.85;;;;;;;;;;5067704;28;20098;-76
2022/01/16 10:10:34;;;;;;;36.60;15.88;;;;;;;;;;5050633;28;20062;-77
2022/01/16 10:13:07;;;;;;;30.30;15.02;;;;;;;;;;5069212;28;20044;-77
2022/01/16 10:15:34;;;;;;;32.00;14.73;;;;;;;;;;5051057;28;20078;-77
2022/01/16 10:18:04;;;;;;;31.02;14.75;;;;;;;;;;5067740;28;20071;-77
2022/01/16 10:20:39;;;;;;;32.20;13.65;;;;;;;;;;5066608;28;20045;-77
2022/01/16 10:23:15;;;;;;;27.15;13.57;;;;;;;;;;5067760;28;20252;-77
2022/01/16 10:25:45;;;;;;;31.27;12.43;;;;;;;;;;5067751;28;20049;-77
2022/01/16 10:28:13;;;;;;;28.08;12.57;;;;;;;;;;5051450;28;20048;-77
2022/01/16 10:30:43;;;;;;;24.77;11.73;;;;;;;;;;5067305;28;20048;-77
2022/01/16 10:33:11;;;;;;;24.75;11.68;;;;;;;;;;5067066;28;20056;-77
2022/01/16 10:35:37;;;;;;;24.85;10.40;;;;;;;;;;5067283;28;20478;-77
2022/01/16 10:38:03;;;;;;;28.77;10.13;;;;;;;;;;5071911;28;20127;-77
2022/01/16 10:40:33;;;;;;;18.02;8.65;;;;;;;;;;5071380;28;20044;-77
2022/01/16 10:43:05;;;;;;;25.40;9.57;;;;;;;;;;5071771;28;20040;-77
2022/01/16 10:45:32;;;;;;;23.90;9.27;;;;;;;;;;5054700;28;20087;-77
2022/01/16 10:47:59;;;;;;;20.13;8.75;;;;;;;;;;5071441;28;20047;-77
2022/01/16 10:50:37;;;;;;;20.98;8.95;;;;;;;;;;5054724;28;20507;-77
2022/01/16 10:53:26;;;;;;;18.40;7.60;;;;;;;;;;5071024;28;20037;-77
2022/01/16 10:55:54;;;;;;;23.15;7.68;;;;;;;;;;5048522;28;20055;-77
2022/01/16 10:58:24;;;;;;;20.00;7.57;;;;;;;;;;5055295;28;20178;-77
2022/01/16 11:00:59;;;;;;;18.13;7.03;;;;;;;;;;5071042;28;20389;-77
2022/01/16 11:03:26;;;;;;;23.00;7.50;;;;;;;;;;5071460;28;20045;-77
2022/01/16 11:05:55;;;;;;;20.60;6.40;;;;;;;;;;5071806;28;20404;-77
2022/01/16 11:08:22;;;;;;;20.65;6.90;;;;;;;;;;5070852;28;20041;-76
2022/01/16 11:10:50;;;;;;;18.58;6.07;;;;;;;;;;5054075;28;20517;-77
2022/01/16 11:13:17;;;;;;;18.50;6.60;;;;;;;;;;5070883;28;20174;-76
2022/01/16 11:15:45;;;;;;;17.50;6.13;;;;;;;;;;5054066;28;20516;-77
2022/01/16 11:18:12;;;;;;;16.45;6.65;;;;;;;;;;5070846;28;20047;-76
2022/01/16 11:20:39;;;;;;;15.18;6.32;;;;;;;;;;5069893;28;20044;-76
2022/01/16 11:25:38;;;;;;;19.77;6.72;;;;;;;;;;5070603;28;20132;-77
2022/01/16 11:28:05;;;;;;;13.88;6.28;;;;;;;;;;5071827;28;20052;-76
2022/01/16 11:30:32;;;;;;;17.48;6.35;;;;;;;;;;5069980;28;20037;-77
2022/01/16 11:32:58;;;;;;;17.20;7.13;;;;;;;;;;5053967;28;20075;-76
2022/01/16 11:35:26;;;;;;;12.63;5.88;;;;;;;;;;5070125;28;20090;-77
2022/01/16 11:37:52;;;;;;;16.33;6.38;;;;;;;;;;5071252;28;20389;-77
2022/01/16 11:40:25;;;;;;;16.02;6.63;;;;;;;;;;5070321;28;20032;-77
2022/01/16 11:43:10;;;;;;;15.10;6.05;;;;;;;;;;5069892;28;20340;-77
2022/01/16 11:45:51;;;;;;;12.98;6.47;;;;;;;;;;5070344;28;20128;-76
2022/01/16 11:48:37;;;;;;;12.73;6.43;;;;;;;;;;5069065;28;20063;-76
2022/01/16 11:51:04;;;;;;;16.25;6.97;;;;;;;;;;5053608;28;20206;-76
2022/01/16 11:53:49;;;;;;;15.13;6.47;;;;;;;;;;5070162;28;20052;-76
2022/01/16 11:56:35;;;;;;;14.93;6.95;;;;;;;;;;5053208;28;20052;-77
2022/01/16 11:59:14;;;;;;;14.82;7.28;;;;;;;;;;5070336;28;20036;-76
2022/01/16 12:01:43;;;;;;;19.92;7.50;;;;;;;;;;5069778;28;20041;-76
2022/01/16 12:04:29;;;;;;;14.48;7.05;;;;;;;;;;5069951;28;20045;-76
2022/01/16 12:07:15;;;;;;;13.15;7.47;;;;;;;;;;5046013;28;20053;-76
2022/01/16 12:12:13;;;;;;;13.80;7.50;;;;;;;;;;5070018;28;20446;-77
2022/01/16 12:14:56;;;;;;;18.40;7.93;;;;;;;;;;5053235;28;20142;-77
2022/01/16 12:17:38;;;;;;;16.58;7.53;;;;;;;;;;5071064;28;20043;-77
2022/01/16 12:20:20;;;;;;;19.48;8.18;;;;;;;;;;5069910;28;20120;-76
2022/01/16 12:23:08;;;;;;;17.58;7.95;;;;;;;;;;5052847;28;20055;-76
2022/01/16 12:25:34;;;;;;;20.33;7.97;;;;;;;;;;5052324;28;20084;-77
2022/01/16 12:28:06;;;;;;;16.65;7.68;;;;;;;;;;5069482;28;20455;-77
2022/01/16 12:30:32;;;;;;;19.70;8.00;;;;;;;;;;5070380;28;20048;-77
2022/01/16 12:32:59;;;;;;;15.77;8.15;;;;;;;;;;5070367;28;20052;-77
2022/01/16 12:35:46;;;;;;;21.08;8.10;;;;;;;;;;5069281;28;20044;-77
2022/01/16 12:38:13;;;;;;;17.73;7.90;;;;;;;;;;5070457;28;20427;-76
2022/01/16 12:40:40;;;;;;;16.25;7.90;;;;;;;;;;5068953;28;20036;-76
2022/01/16 12:43:13;;;;;;;20.63;8.10;;;;;;;;;;5069666;28;20058;-76
2022/01/16 12:45:40;;;;;;;19.10;7.88;;;;;;;;;;5069183;28;20060;-77
2022/01/16 12:48:07;;;;;;;21.42;7.70;;;;;;;;;;5069370;28;20044;-77
2022/01/16 12:50:33;;;;;;;17.60;7.55;;;;;;;;;;5068056;28;20075;-77
2022/01/16 12:52:59;;;;;;;23.60;7.93;;;;;;;;;;5068531;28;20155;-77
2022/01/16 12:55:26;;;;;;;16.90;7.47;;;;;;;;;;5068676;28;20056;-77
2022/01/16 12:57:52;;;;;;;16.95;7.38;;;;;;;;;;5068688;28;20400;-77
2022/01/16 13:00:18;;;;;;;18.30;7.18;;;;;;;;;;5051976;28;20123;-77
2022/01/16 13:02:45;;;;;;;17.08;7.32;;;;;;;;;;5068861;28;20508;-77
2022/01/16 13:05:19;;;;;;;15.75;6.97;;;;;;;;;;5068695;28;20037;-77
2022/01/16 13:07:45;;;;;;;15.15;7.38;;;;;;;;;;5068779;28;20376;-77
2022/01/16 13:10:11;;;;;;;17.92;7.22;;;;;;;;;;5068564;28;20062;-77
2022/01/16 13:12:38;;;;;;;14.63;7.13;;;;;;;;;;5067834;28;20051;-77
2022/01/16 13:15:04;;;;;;;15.70;6.70;;;;;;;;;;5068703;28;20040;-77
2022/01/16 13:17:33;;;;;;;15.52;6.93;;;;;;;;;;5069986;28;20040;-76
2022/01/16 13:20:02;;;;;;;17.20;6.75;;;;;;;;;;5069010;28;20032;-77
2022/01/16 13:22:30;;;;;;;15.20;7.35;;;;;;;;;;5068584;28;20123;-77
2022/01/16 13:24:58;;;;;;;17.25;7.40;;;;;;;;;;5051837;28;20048;-77
2022/01/16 13:27:30;;;;;;;16.10;6.80;;;;;;;;;;5068325;28;20170;-77
2022/01/16 13:29:56;;;;;;;18.30;6.38;;;;;;;;;;5051901;28;20152;-76
2022/01/16 13:32:27;;;;;;;19.60;6.70;;;;;;;;;;5069397;28;20052;-77
2022/01/16 13:34:54;;;;;;;16.27;7.38;;;;;;;;;;5069418;28;20515;-77
2022/01/16 13:37:26;;;;;;;13.30;6.00;;;;;;;;;;5068257;28;20097;-77
2022/01/16 13:40:03;;;;;;;13.57;6.35;;;;;;;;;;5068071;28;20045;-77
2022/01/16 13:45:24;;;;;;;16.48;6.15;;;;;;;;;;5068426;28;20056;-77
2022/01/16 13:48:00;;;;;;;13.73;5.60;;;;;;;;;;5067570;28;20080;-77
2022/01/16 13:50:27;;;;;;;18.20;6.75;;;;;;;;;;5068525;28;20101;-77
2022/01/16 13:53:03;;;;;;;12.75;6.00;;;;;;;;;;5067622;28;20480;-77
2022/01/16 13:55:30;;;;;;;;;;;;;;;;;;5068466;28;20129;-77
2022/01/16 13:57:56;;;;;;;14.25;6.25;;;;;;;;;;5051361;28;19937;-77
2022/01/16 14:00:34;;;;;;;17.00;6.75;;;;;;;;;;5068426;28;20047;-77
2022/01/16 14:03:17;;;;;;;13.85;6.53;;;;;;;;;;5051416;28;20051;-77
2022/01/16 14:05:45;;;;;;;18.27;6.10;;;;;;;;;;5051362;28;20048;-77
2022/01/16 14:08:18;;;;;;;13.80;6.15;;;;;;;;;;5051317;28;20051;-77
2022/01/16 14:10:44;;;;;;;15.50;6.45;;;;;;;;;;5066905;28;20079;-77
2022/01/16 14:13:11;;;;;;;14.05;6.28;;;;;;;;;;5067979;28;20043;-77
2022/01/16 14:15:38;;;;;;;18.73;6.82;;;;;;;;;;5067953;28;20475;-77
2022/01/16 14:18:15;;;;;;;14.45;6.25;;;;;;;;;;5051511;28;20540;-77
2022/01/16 14:20:48;;;;;;;16.70;6.13;;;;;;;;;;5067753;28;20072;-77
2022/01/16 14:23:14;;;;;;;17.45;6.38;;;;;;;;;;5051170;28;20139;-77
2022/01/16 14:25:40;;;;;;;16.35;6.40;;;;;;;;;;5050842;28;20128;-77
2022/01/16 14:28:07;;;;;;;15.45;6.60;;;;;;;;;;5067449;28;20044;-77
2022/01/16 14:30:33;;;;;;;17.10;6.28;;;;;;;;;;5066802;28;20072;-77
2022/01/16 14:32:59;;;;;;;16.60;6.47;;;;;;;;;;5051050;28;20048;-77
2022/01/16 14:35:25;;;;;;;15.93;6.60;;;;;;;;;;5068267;28;20044;-77
2022/01/16 14:37:51;;;;;;;17.02;6.88;;;;;;;;;;5067431;28;20072;-77
2022/01/16 14:40:17;;;;;;;19.67;6.97;;;;;;;;;;5067427;28;20075;-77
2022/01/16 14:42:45;;;;;;;14.30;6.80;;;;;;;;;;5067276;28;20155;-77
2022/01/16 14:45:11;;;;;;;15.93;6.60;;;;;;;;;;5067704;28;20141;-77
2022/01/16 14:47:39;;;;;;;18.63;6.95;;;;;;;;;;5067191;28;20063;-77
2022/01/16 14:50:06;;;;;;;16.55;6.95;;;;;;;;;;5067643;28;20060;-77
2022/01/16 14:52:32;;;;;;;18.20;7.13;;;;;;;;;;5067216;28;20041;-77
2022/01/16 14:54:59;;;;;;;16.90;7.18;;;;;;;;;;5050719;28;20043;-77
2022/01/16 14:57:26;;;;;;;18.85;8.98;;;;;;;;;;5050591;28;20056;-77
2022/01/16 14:59:54;;;;;;;23.10;8.63;;;;;;;;;;5067023;28;20037;-77
2022/01/16 15:02:21;;;;;;;22.95;7.88;;;;;;;;;;5101521;28;20076;-77
2022/01/16 15:04:47;;;;;;;20.48;8.38;;;;;;;;;;5067427;28;20514;-77
2022/01/16 15:07:13;;;;;;;19.15;7.78;;;;;;;;;;5067699;28;20041;-77